Погода Санто Антонио ду Ампарона неделю

Минас-Жерайс, Бразилия

20 - 26 июля
  • 20июля
    Сегодня
    +10°
    +27°
    Ясно и безоблачно
    ВремяПогодаТемператураВлажностьДавлениеВетер, м/сВероятность осадков
    00:00Ясно и безоблачно+15°C84 %690 мм2.7 м/с5 %
    03:00Ясно и безоблачно+13°C90 %689 мм2.2 м/с5 %
    06:00Ясно и безоблачно+11°C93 %689 мм2.1 м/с5 %
    09:00Ясно и безоблачно+16°C70 %691 мм1.8 м/с5 %
    12:00Ясно и безоблачно+23°C46 %691 мм2.2 м/с5 %
    15:00Ясно и безоблачно+26°C36 %690 мм2.3 м/с5 %
    18:00Ясно и безоблачно+19°C55 %688 мм2.5 м/с5 %
    21:00Ясно и безоблачно+17°C65 %689 мм3.7 м/с5 %
  • 21июля
    Воскресенье
    +10°
    +27°
    Ясно и безоблачно
    ВремяПогодаТемператураВлажностьДавлениеВетер, м/сВероятность осадков
    00:00Ясно и безоблачно+14°C81 %689 мм3.6 м/с5 %
    03:00Ясно и безоблачно+12°C91 %688 мм3.5 м/с5 %
    06:00Ясно и безоблачно+10°C93 %689 мм3.4 м/с5 %
    09:00Ясно и безоблачно+16°C71 %690 мм2.2 м/с5 %
    12:00Ясно и безоблачно+23°C43 %690 мм1.9 м/с5 %
    15:00Ясно и безоблачно+27°C39 %689 мм0.6 м/с5 %
    18:00Ясно и безоблачно+20°C59 %688 мм1.7 м/с5 %
    21:00Ясно и безоблачно+17°C71 %689 мм2.6 м/с5 %
  • 22июля
    Понедельник
    +11°
    +27°
    Ясно и безоблачно
    ВремяПогодаТемператураВлажностьДавлениеВетер, м/сВероятность осадков
    00:00Ясно и безоблачно+15°C81 %689 мм2.2 м/с5 %
    03:00Ясно и безоблачно+13°C90 %688 мм1.8 м/с5 %
    06:00Ясно и безоблачно+11°C92 %688 мм1.8 м/с5 %
    09:00Ясно и безоблачно+17°C65 %691 мм1.3 м/с5 %
    12:00Ясно и безоблачно+23°C45 %691 мм1.7 м/с5 %
    15:00Ясно и безоблачно+26°C40 %690 мм2.1 м/с5 %
    18:00Ясно и безоблачно+20°C57 %689 мм1.9 м/с5 %
    21:00Ясно и безоблачно+19°C67 %689 мм2.1 м/с5 %
  • 23июля
    Вторник
    +11°
    +28°
    Ясно и безоблачно
    ВремяПогодаТемператураВлажностьДавлениеВетер, м/сВероятность осадков
    00:00Ясно и безоблачно+16°C79 %690 мм3.3 м/с5 %
    03:00Ясно и безоблачно+14°C87 %689 мм2.9 м/с5 %
    06:00Ясно и безоблачно+12°C89 %689 мм2.8 м/с5 %
    09:00Ясно и безоблачно+17°C67 %691 мм2.9 м/с5 %
    12:00Ясно и безоблачно+23°C39 %692 мм2.4 м/с5 %
    15:00Ясно и безоблачно+27°C37 %691 мм2.4 м/с5 %
    18:00Ясно и безоблачно+20°C51 %690 мм2.5 м/с5 %
    21:00Практически безоблачно+17°C64 %690 мм3.4 м/с5 %
  • 24июля
    Среда
    +10°
    +28°
    Ясно и безоблачно
    ВремяПогодаТемператураВлажностьДавлениеВетер, м/сВероятность осадков
    00:00Ясно и безоблачно+15°C75 %690 мм3.3 м/с5 %
    03:00Ясно и безоблачно+13°C86 %689 мм3.0 м/с5 %
    06:00Ясно и безоблачно+11°C91 %689 мм2.9 м/с5 %
    09:00Ясно и безоблачно+17°C70 %692 мм2.3 м/с5 %
    12:00Небольшая облачность+24°C45 %692 мм1.1 м/с5 %
    15:00Ясно и безоблачно+27°C41 %691 мм0.9 м/с5 %
    18:00Ясно и безоблачно+20°C57 %690 мм2.1 м/с5 %
    21:00Ясно и безоблачно+18°C69 %691 мм3.5 м/с5 %
Мы используем cookies
Соглашаюсь